Time;durP1;ratioP1;P1;durP2;ratioP2;P2;SDS_P1;SDS_P2;PMS_P1;PMS_P2;Temp;Humidity;BMP_temperature;BMP_pressure;BME280_temperature;BME280_humidity;BME280_pressure;Samples;Min_cycle;Max_cycle;Signal;HPM_P1;HPM_P2
2023/09/17 00:02:25;;;;;;;24.98;21.70;;;14.90;99.90;;;;;;5082658;28;20049;-78
2023/09/17 00:04:50;;;;;;;26.10;22.20;;;14.90;99.90;;;;;;5083671;28;20079;-79
2023/09/17 00:07:16;;;;;;;29.35;21.13;;;14.90;99.90;;;;;;5064111;28;20056;-77
2023/09/17 00:09:42;;;;;;;25.65;20.67;;;14.80;99.90;;;;;;5083468;28;20040;-77
2023/09/17 00:12:08;;;;;;;28.70;23.27;;;14.80;99.90;;;;;;5068168;28;20052;-77
2023/09/17 00:14:34;;;;;;;24.67;21.40;;;14.80;99.90;;;;;;5069750;28;20037;-78
2023/09/17 00:17:00;;;;;;;29.80;22.02;;;14.80;99.90;;;;;;5079097;28;20043;-78
2023/09/17 00:19:27;;;;;;;29.40;23.17;;;14.80;99.90;;;;;;5099810;28;20044;-77
2023/09/17 00:21:52;;;;;;;24.90;21.50;;;14.70;99.90;;;;;;5104758;28;20059;-77
2023/09/17 00:24:18;;;;;;;26.20;22.77;;;14.70;99.90;;;;;;5095801;28;20044;-77
2023/09/17 00:26:47;;;;;;;27.50;23.00;;;14.90;99.90;;;;;;5068127;28;20049;-76
2023/09/17 00:29:13;;;;;;;26.55;23.10;;;14.80;99.90;;;;;;5101167;28;20040;-77
2023/09/17 00:31:39;;;;;;;27.58;21.42;;;14.70;99.90;;;;;;5085833;28;20040;-76
2023/09/17 00:34:04;;;;;;;26.75;21.92;;;14.70;99.90;;;;;;5055143;28;20055;-76
2023/09/17 00:36:30;;;;;;;26.52;23.60;;;14.70;99.90;;;;;;5090913;28;20045;-76
2023/09/17 00:38:56;;;;;;;27.55;22.90;;;14.70;99.90;;;;;;5088415;28;20037;-77
2023/09/17 00:41:21;;;;;;;26.02;22.75;;;14.70;99.90;;;;;;5082408;28;20036;-77
2023/09/17 00:43:48;;;;;;;26.40;22.70;;;14.70;99.90;;;;;;5084205;28;20032;-76
2023/09/17 00:46:14;;;;;;;25.35;21.25;;;14.70;99.90;;;;;;5077128;28;20041;-77
2023/09/17 00:48:41;;;;;;;27.30;23.08;;;14.70;99.90;;;;;;5058059;28;20040;-77
2023/09/17 00:51:08;;;;;;;24.97;22.27;;;14.70;99.90;;;;;;5067835;28;20105;-77
2023/09/17 00:53:35;;;;;;;25.70;22.60;;;14.80;99.90;;;;;;5079647;28;20291;-77
2023/09/17 00:56:01;;;;;;;27.55;23.50;;;14.60;99.90;;;;;;5089235;28;20048;-77
2023/09/17 00:58:33;;;;;;;28.80;24.50;;;14.60;99.90;;;;;;5059527;28;20037;-77
2023/09/17 01:00:58;;;;;;;25.75;22.20;;;14.60;99.90;;;;;;5101959;28;20083;-78
2023/09/17 01:03:26;;;;;;;27.08;24.08;;;14.60;99.90;;;;;;5078504;28;20083;-77
2023/09/17 01:05:53;;;;;;;30.85;22.98;;;14.60;99.90;;;;;;5093571;28;20071;-78
2023/09/17 01:08:19;;;;;;;34.63;24.83;;;14.60;99.90;;;;;;5058917;28;20040;-77
2023/09/17 01:10:47;;;;;;;31.08;26.40;;;14.60;99.90;;;;;;5074730;28;20314;-78
2023/09/17 01:13:13;;;;;;;31.63;25.02;;;14.60;99.90;;;;;;5062492;28;20045;-77
2023/09/17 01:15:39;;;;;;;27.52;23.77;;;14.60;99.90;;;;;;5066564;28;20048;-78
2023/09/17 01:18:07;;;;;;;27.25;23.20;;;14.60;99.90;;;;;;5062755;28;20048;-78
2023/09/17 01:20:38;;;;;;;27.08;23.50;;;14.60;99.90;;;;;;5096392;28;20515;-78
2023/09/17 01:23:15;;;;;;;27.90;23.60;;;14.60;99.90;;;;;;5081836;28;20044;-78
2023/09/17 01:25:46;;;;;;;25.90;23.08;;;14.60;99.90;;;;;;5069582;28;20119;-78
2023/09/17 01:28:13;;;;;;;26.52;21.90;;;14.60;99.90;;;;;;5081904;28;20059;-77
2023/09/17 01:30:42;;;;;;;28.48;24.70;;;14.50;99.90;;;;;;5074429;28;20453;-78
2023/09/17 01:33:11;;;;;;;24.30;21.60;;;14.50;99.90;;;;;;5073565;28;20040;-78
2023/09/17 01:35:54;;;;;;;32.22;24.10;;;14.50;99.90;;;;;;5077897;28;20041;-78
2023/09/17 01:38:26;;;;;;;25.25;22.52;;;14.50;99.90;;;;;;5061524;28;20044;-78
2023/09/17 01:40:53;;;;;;;26.45;22.40;;;14.60;99.90;;;;;;5062901;28;20052;-78
2023/09/17 01:43:20;;;;;;;27.58;23.15;;;14.50;99.90;;;;;;5102570;28;20087;-77
2023/09/17 01:45:47;;;;;;;29.83;25.33;;;14.60;99.90;;;;;;5062234;28;20056;-77
2023/09/17 01:48:17;;;;;;;25.80;22.52;;;14.60;99.90;;;;;;5069770;28;20502;-77
2023/09/17 01:50:45;;;;;;;29.98;22.60;;;14.60;99.90;;;;;;5063726;28;20045;-78
2023/09/17 01:53:13;;;;;;;32.63;23.42;;;14.60;99.90;;;;;;5056747;28;20560;-78
2023/09/17 01:55:41;;;;;;;27.65;24.55;;;14.60;99.90;;;;;;5059749;28;20048;-78
2023/09/17 01:58:10;;;;;;;32.60;26.55;;;14.60;99.90;;;;;;5057583;28;20049;-77
2023/09/17 02:00:37;;;;;;;32.63;25.60;;;14.60;99.90;;;;;;5068883;28;20041;-78
2023/09/17 02:03:03;;;;;;;33.15;25.52;;;14.60;99.90;;;;;;5060563;28;20040;-77
2023/09/17 02:05:29;;;;;;;31.45;25.50;;;14.70;99.90;;;;;;5073041;28;20040;-77
2023/09/17 02:07:55;;;;;;;29.27;23.92;;;14.80;99.90;;;;;;5062021;28;20076;-77
2023/09/17 02:10:20;;;;;;;25.88;22.48;;;14.80;99.90;;;;;;5062912;28;20048;-77
2023/09/17 02:12:47;;;;;;;32.20;25.10;;;14.80;99.90;;;;;;5061729;28;20048;-77
2023/09/17 02:15:12;;;;;;;27.17;24.27;;;14.90;99.90;;;;;;5053801;28;20040;-77
2023/09/17 02:17:39;;;;;;;28.17;24.30;;;14.90;99.90;;;;;;5053528;28;20043;-78
2023/09/17 02:20:11;;;;;;;27.40;23.38;;;14.90;99.90;;;;;;5058940;28;20079;-78
2023/09/17 02:22:37;;;;;;;29.58;23.42;;;14.90;99.90;;;;;;5063567;28;20091;-78
2023/09/17 02:25:05;;;;;;;27.98;23.45;;;14.90;99.90;;;;;;5075622;28;20068;-79
2023/09/17 02:27:31;;;;;;;28.50;24.55;;;15.00;99.90;;;;;;5076830;28;20048;-77
2023/09/17 02:29:57;;;;;;;32.78;27.52;;;15.00;99.90;;;;;;5068560;28;20052;-79
2023/09/17 02:32:23;;;;;;;34.10;28.55;;;15.00;99.90;;;;;;5057419;28;20052;-78
2023/09/17 02:34:49;;;;;;;32.40;28.38;;;15.10;99.90;;;;;;5077836;28;20225;-77
2023/09/17 02:37:15;;;;;;;27.92;24.88;;;15.20;99.90;;;;;;5054054;28;20424;-78
2023/09/17 02:39:41;;;;;;;33.28;27.60;;;15.20;99.90;;;;;;5055292;28;20044;-78
2023/09/17 02:42:06;;;;;;;30.95;25.45;;;15.10;99.90;;;;;;5090632;28;20051;-78
2023/09/17 02:44:32;;;;;;;34.25;26.67;;;15.20;99.90;;;;;;5073155;28;20103;-76
2023/09/17 02:46:58;;;;;;;30.83;25.95;;;15.20;99.90;;;;;;5057159;28;20055;-79
2023/09/17 02:49:27;;;;;;;39.38;30.35;;;15.20;99.90;;;;;;5059138;28;20118;-79
2023/09/17 02:51:52;;;;;;;32.50;27.95;;;15.10;99.90;;;;;;5067305;28;20394;-78
2023/09/17 02:54:21;;;;;;;37.45;28.67;;;15.30;99.90;;;;;;5108145;28;20055;-77
2023/09/17 02:56:47;;;;;;;37.20;31.23;;;15.20;99.90;;;;;;5076709;28;20045;-78
2023/09/17 02:59:13;;;;;;;34.70;29.48;;;15.20;99.90;;;;;;5066645;28;20041;-78
2023/09/17 03:01:40;;;;;;;34.90;29.80;;;15.20;99.90;;;;;;5071486;28;20047;-79
2023/09/17 03:04:06;;;;;;;38.53;30.17;;;15.30;99.90;;;;;;5104037;28;20051;-79
2023/09/17 03:06:33;;;;;;;35.63;28.73;;;15.30;99.90;;;;;;5066239;28;20040;-78
2023/09/17 03:08:59;;;;;;;35.97;28.55;;;15.30;99.90;;;;;;5073835;28;20072;-79
2023/09/17 03:11:26;;;;;;;32.30;28.73;;;15.30;99.90;;;;;;5069703;28;20045;-78
2023/09/17 03:13:52;;;;;;;41.72;30.65;;;15.30;99.90;;;;;;5078669;28;20044;-78
2023/09/17 03:16:18;;;;;;;37.95;30.77;;;15.40;99.90;;;;;;5068281;28;20136;-78
2023/09/17 03:18:44;;;;;;;35.58;30.63;;;15.40;99.90;;;;;;5067932;28;20041;-78
2023/09/17 03:21:11;;;;;;;34.22;28.52;;;15.40;99.90;;;;;;5062263;28;20044;-77
2023/09/17 03:23:38;;;;;;;37.88;30.05;;;15.40;99.90;;;;;;5072800;28;20070;-78
2023/09/17 03:26:05;;;;;;;38.25;29.92;;;15.40;99.90;;;;;;5068697;28;20029;-79
2023/09/17 03:28:31;;;;;;;35.30;30.10;;;15.50;99.90;;;;;;5067206;28;20037;-78
2023/09/17 03:30:58;;;;;;;35.08;29.73;;;15.60;99.90;;;;;;5070263;28;20040;-79
2023/09/17 03:33:24;;;;;;;35.03;29.60;;;15.50;99.90;;;;;;5058037;28;20037;-78
2023/09/17 03:35:51;;;;;;;38.50;30.52;;;15.50;99.90;;;;;;5079374;28;20048;-79
2023/09/17 03:38:18;;;;;;;41.50;33.70;;;15.50;99.90;;;;;;5070028;28;20054;-78
2023/09/17 03:40:46;;;;;;;38.55;31.70;;;15.50;99.90;;;;;;5042604;28;20040;-78
2023/09/17 03:43:12;;;;;;;36.65;31.58;;;15.50;99.90;;;;;;5076058;28;20040;-78
2023/09/17 03:45:38;;;;;;;34.67;29.60;;;15.50;99.90;;;;;;5090565;28;20062;-78
2023/09/17 03:48:06;;;;;;;39.05;32.60;;;15.50;99.90;;;;;;5058013;28;20557;-80
2023/09/17 03:50:32;;;;;;;42.15;30.90;;;15.60;99.90;;;;;;5059139;28;20041;-79
2023/09/17 03:53:01;;;;;;;35.83;29.45;;;15.60;99.90;;;;;;5059180;28;20052;-78
2023/09/17 03:55:31;;;;;;;37.80;29.92;;;15.60;99.90;;;;;;5063695;28;20103;-79
2023/09/17 03:57:57;;;;;;;38.63;30.40;;;15.60;99.90;;;;;;5074155;28;20126;-78
2023/09/17 04:00:23;;;;;;;37.55;30.83;;;15.70;99.90;;;;;;5058099;28;20514;-79
2023/09/17 04:02:49;;;;;;;44.72;32.70;;;15.70;99.90;;;;;;5058290;28;20084;-78
2023/09/17 04:05:16;;;;;;;33.83;29.88;;;15.60;99.90;;;;;;5058735;28;20079;-78
2023/09/17 04:07:44;;;;;;;30.90;26.73;;;15.70;99.90;;;;;;5058871;28;20088;-79
2023/09/17 04:10:14;;;;;;;37.67;30.17;;;15.70;99.90;;;;;;5059782;28;20522;-80
2023/09/17 04:12:42;;;;;;;39.80;31.05;;;15.70;99.90;;;;;;5077108;28;20040;-78
2023/09/17 04:15:13;;;;;;;35.57;28.67;;;15.70;99.90;;;;;;5072983;28;20102;-78
2023/09/17 04:17:39;;;;;;;35.92;28.80;;;15.70;99.90;;;;;;5076827;28;20124;-79
2023/09/17 04:20:11;;;;;;;34.08;28.92;;;15.70;99.90;;;;;;5111649;28;20120;-77
2023/09/17 04:22:37;;;;;;;42.10;32.60;;;15.70;99.90;;;;;;5086392;28;20164;-78
2023/09/17 04:25:06;;;;;;;35.50;28.70;;;15.70;99.90;;;;;;5074364;28;20127;-78
2023/09/17 04:27:32;;;;;;;34.67;29.92;;;15.70;99.90;;;;;;5075002;28;20045;-76
2023/09/17 04:29:58;;;;;;;37.58;28.25;;;15.60;99.90;;;;;;5075469;28;20045;-78
2023/09/17 04:32:24;;;;;;;35.58;29.83;;;15.70;99.90;;;;;;5076078;28;20052;-78
2023/09/17 04:34:50;;;;;;;36.85;29.17;;;15.70;99.90;;;;;;5082380;28;20067;-77
2023/09/17 04:37:19;;;;;;;35.65;27.15;;;15.70;99.90;;;;;;5092820;28;20034;-78
2023/09/17 04:39:49;;;;;;;34.90;29.50;;;15.70;99.90;;;;;;5086796;28;20045;-77
2023/09/17 04:42:15;;;;;;;42.95;32.65;;;15.70;99.90;;;;;;5083730;28;20071;-78
2023/09/17 04:44:40;;;;;;;40.88;32.05;;;15.80;99.90;;;;;;5058829;28;20120;-78
2023/09/17 04:47:06;;;;;;;43.80;31.98;;;15.80;99.90;;;;;;5056976;28;20147;-79
2023/09/17 04:49:33;;;;;;;38.00;30.15;;;15.90;99.90;;;;;;5082114;28;20124;-79
2023/09/17 04:52:00;;;;;;;;;;;15.90;99.90;;;;;;5064536;28;20033;-78
2023/09/17 04:54:26;;;;;;;36.22;31.08;;;15.90;99.90;;;;;;5082799;28;20027;-77
2023/09/17 04:56:52;;;;;;;45.38;32.80;;;15.80;99.90;;;;;;5062708;28;20048;-78
2023/09/17 04:59:22;;;;;;;43.13;35.03;;;15.90;99.90;;;;;;5071344;28;20099;-79
2023/09/17 05:01:48;;;;;;;48.00;34.80;;;16.10;99.90;;;;;;5071802;28;20509;-78
2023/09/17 05:04:15;;;;;;;47.17;35.58;;;16.10;99.90;;;;;;5073327;28;20040;-77
2023/09/17 05:06:42;;;;;;;43.38;34.67;;;16.10;99.90;;;;;;5061653;28;20433;-78
2023/09/17 05:09:08;;;;;;;47.42;36.72;;;16.10;99.90;;;;;;5095952;28;20085;-78
2023/09/17 05:11:34;;;;;;;50.50;36.60;;;16.10;99.90;;;;;;5094496;28;20135;-78
2023/09/17 05:14:01;;;;;;;43.47;34.63;;;16.10;99.90;;;;;;5081877;28;20132;-78
2023/09/17 05:16:27;;;;;;;44.00;34.50;;;16.10;99.90;;;;;;5078501;28;20123;-78
2023/09/17 05:18:53;;;;;;;41.65;32.15;;;16.10;99.90;;;;;;5075056;28;20044;-78
2023/09/17 05:21:19;;;;;;;40.35;32.33;;;16.00;99.90;;;;;;5059312;28;20079;-78
2023/09/17 05:23:48;;;;;;;42.90;32.42;;;16.00;99.90;;;;;;5074412;28;20441;-78
2023/09/17 05:26:16;;;;;;;38.13;32.55;;;16.00;99.90;;;;;;5076474;28;20049;-78
2023/09/17 05:28:42;;;;;;;43.10;31.45;;;16.00;99.90;;;;;;5066225;28;20080;-78
2023/09/17 05:31:09;;;;;;;41.13;33.13;;;16.00;99.90;;;;;;5084848;28;20084;-78
2023/09/17 05:33:35;;;;;;;41.23;32.10;;;16.00;99.90;;;;;;5054758;28;20033;-77
2023/09/17 05:36:01;;;;;;;39.97;32.72;;;16.00;99.90;;;;;;5075132;28;20128;-78
2023/09/17 05:38:27;;;;;;;40.38;33.17;;;16.10;99.90;;;;;;5062704;28;20056;-77
2023/09/17 05:40:53;;;;;;;40.45;31.92;;;16.00;99.90;;;;;;5088377;28;20388;-78
2023/09/17 05:43:19;;;;;;;42.30;34.17;;;16.00;99.90;;;;;;5088380;28;20056;-78
2023/09/17 05:45:45;;;;;;;44.40;35.90;;;16.00;99.90;;;;;;5055891;28;20048;-79
2023/09/17 05:48:11;;;;;;;47.92;34.53;;;16.10;99.90;;;;;;5057502;28;20483;-78
2023/09/17 05:50:37;;;;;;;43.83;35.50;;;16.00;99.90;;;;;;5067409;28;20080;-78
2023/09/17 05:53:03;;;;;;;45.13;33.33;;;16.00;99.90;;;;;;5056691;28;20067;-78
2023/09/17 05:55:32;;;;;;;43.95;33.50;;;16.10;99.90;;;;;;5073414;28;20041;-77
2023/09/17 05:57:57;;;;;;;44.95;34.63;;;16.10;99.90;;;;;;5072401;28;20037;-78
2023/09/17 06:00:23;;;;;;;42.97;34.78;;;16.10;99.90;;;;;;5072786;28;20094;-77
2023/09/17 06:02:52;;;;;;;43.55;34.38;;;16.10;99.90;;;;;;5062050;28;20503;-78
2023/09/17 06:05:18;;;;;;;42.28;32.70;;;16.10;99.90;;;;;;5061075;28;20047;-78
2023/09/17 06:07:44;;;;;;;42.17;35.72;;;16.10;99.90;;;;;;5106418;28;20105;-78
2023/09/17 06:10:10;;;;;;;43.38;34.42;;;16.20;99.90;;;;;;5061701;28;20502;-77
2023/09/17 06:12:35;;;;;;;44.25;36.40;;;16.20;99.90;;;;;;5059300;28;20051;-78
2023/09/17 06:15:01;;;;;;;47.17;33.30;;;16.20;99.90;;;;;;5069602;28;20120;-78
2023/09/17 06:17:27;;;;;;;48.25;35.80;;;16.20;99.90;;;;;;5072755;28;20052;-77
2023/09/17 06:19:53;;;;;;;42.67;34.33;;;16.20;99.90;;;;;;5069195;28;20488;-78
2023/09/17 06:22:19;;;;;;;42.15;35.65;;;16.20;99.90;;;;;;5057546;28;20045;-79
2023/09/17 06:24:45;;;;;;;45.47;35.10;;;16.20;99.90;;;;;;5074812;28;20402;-78
2023/09/17 06:27:11;;;;;;;42.22;32.60;;;16.20;99.90;;;;;;5072628;28;20043;-78
2023/09/17 06:29:36;;;;;;;40.35;33.22;;;16.20;99.90;;;;;;5096649;28;20078;-78
2023/09/17 06:32:03;;;;;;;40.20;32.10;;;16.30;99.90;;;;;;5071799;28;20052;-77
2023/09/17 06:34:29;;;;;;;40.80;33.15;;;16.30;99.90;;;;;;5079848;28;20044;-77
2023/09/17 06:36:55;;;;;;;37.03;31.20;;;16.30;99.90;;;;;;5072938;28;20490;-78
2023/09/17 06:39:20;;;;;;;45.35;33.20;;;16.40;99.90;;;;;;5061862;28;20037;-79
2023/09/17 06:41:46;;;;;;;38.58;32.53;;;16.40;99.90;;;;;;5097535;28;20418;-78
2023/09/17 06:44:12;;;;;;;42.78;33.85;;;16.40;99.90;;;;;;5066658;28;20045;-77
2023/09/17 06:46:37;;;;;;;42.83;34.22;;;16.40;99.90;;;;;;5076767;28;20055;-78
2023/09/17 06:49:03;;;;;;;39.83;33.40;;;16.50;99.90;;;;;;5108276;28;20052;-78
2023/09/17 06:51:29;;;;;;;37.05;32.60;;;16.50;99.90;;;;;;5075112;28;20173;-78
2023/09/17 06:53:55;;;;;;;35.78;30.33;;;16.50;99.90;;;;;;5076550;28;20195;-78
2023/09/17 06:56:23;;;;;;;39.38;31.70;;;16.50;99.90;;;;;;5077178;28;20033;-80
2023/09/17 06:58:49;;;;;;;44.53;32.58;;;16.60;99.90;;;;;;5060179;28;20110;-78
2023/09/17 07:01:15;;;;;;;35.13;30.52;;;16.60;99.90;;;;;;5087669;28;20037;-77
2023/09/17 07:03:40;;;;;;;36.17;30.95;;;16.60;99.90;;;;;;5060635;28;20051;-78
2023/09/17 07:06:06;;;;;;;36.35;31.95;;;16.80;99.90;;;;;;5074163;28;20070;-77
2023/09/17 07:08:32;;;;;;;38.63;34.08;;;16.80;99.90;;;;;;5076864;28;20048;-79
2023/09/17 07:10:59;;;;;;;40.53;34.10;;;16.80;99.90;;;;;;5059474;28;20052;-78
2023/09/17 07:13:24;;;;;;;35.20;31.35;;;16.80;99.90;;;;;;5059097;28;20041;-77
2023/09/17 07:15:50;;;;;;;36.58;31.30;;;16.90;99.90;;;;;;5050239;28;20064;-77
2023/09/17 07:18:16;;;;;;;34.90;31.05;;;17.00;99.90;;;;;;5079827;28;20041;-78
2023/09/17 07:20:41;;;;;;;39.78;32.47;;;17.10;99.90;;;;;;5075367;28;20140;-78
2023/09/17 07:23:08;;;;;;;39.90;32.67;;;17.10;99.90;;;;;;5070121;28;20471;-79
2023/09/17 07:25:33;;;;;;;42.90;34.40;;;17.20;99.90;;;;;;5079711;28;20051;-77
2023/09/17 07:28:07;;;;;;;40.80;33.92;;;17.20;99.90;;;;;;5075902;28;20040;-77
2023/09/17 07:30:36;;;;;;;39.25;33.00;;;17.30;99.90;;;;;;5066317;28;20064;-78
2023/09/17 07:33:04;;;;;;;39.83;32.63;;;17.30;99.90;;;;;;5063529;28;20056;-79
2023/09/17 07:35:33;;;;;;;36.22;31.10;;;17.40;99.90;;;;;;5057463;28;20044;-78
2023/09/17 07:37:59;;;;;;;35.30;29.95;;;17.50;99.90;;;;;;5067469;28;20095;-77
2023/09/17 07:40:25;;;;;;;38.35;31.58;;;17.60;99.90;;;;;;5056845;28;20406;-77
2023/09/17 07:42:51;;;;;;;33.42;29.67;;;17.60;99.90;;;;;;5069414;28;20041;-78
2023/09/17 07:45:17;;;;;;;38.92;29.17;;;17.70;99.90;;;;;;5082670;28;20043;-78
2023/09/17 07:47:43;;;;;;;33.25;28.75;;;17.80;99.90;;;;;;5056129;28;20090;-76
2023/09/17 07:50:09;;;;;;;32.80;28.70;;;17.90;99.90;;;;;;5060159;28;20131;-78
2023/09/17 07:52:35;;;;;;;33.60;28.50;;;18.00;99.90;;;;;;5056061;28;20055;-78
2023/09/17 07:55:01;;;;;;;30.52;27.30;;;18.00;99.90;;;;;;5076523;28;20041;-78
2023/09/17 07:57:27;;;;;;;34.58;28.40;;;18.00;99.90;;;;;;5087786;28;20037;-78
2023/09/17 07:59:53;;;;;;;31.20;27.38;;;18.10;99.90;;;;;;5065975;28;20512;-78
2023/09/17 08:02:19;;;;;;;30.15;26.88;;;18.00;99.90;;;;;;5058710;28;20490;-79
2023/09/17 08:04:44;;;;;;;31.10;27.75;;;18.10;99.90;;;;;;5067955;28;20037;-79
2023/09/17 08:07:14;;;;;;;30.08;26.88;;;18.10;99.90;;;;;;5068328;28;20402;-77
2023/09/17 08:09:40;;;;;;;28.73;25.42;;;18.10;99.90;;;;;;5082295;28;20057;-78
2023/09/17 08:12:08;;;;;;;30.67;25.45;;;18.20;99.90;;;;;;5083788;28;20192;-79
2023/09/17 08:14:34;;;;;;;28.45;24.98;;;18.20;99.90;;;;;;5069854;28;20048;-77
2023/09/17 08:17:01;;;;;;;32.15;25.10;;;18.20;99.90;;;;;;5064931;28;20044;-77
2023/09/17 08:19:27;;;;;;;29.25;25.60;;;18.20;99.90;;;;;;5057467;28;20127;-77
2023/09/17 08:21:52;;;;;;;27.42;24.45;;;18.20;99.90;;;;;;5069713;28;20587;-78
2023/09/17 08:24:20;;;;;;;27.08;23.35;;;18.30;99.90;;;;;;5061953;28;20128;-77
2023/09/17 08:26:47;;;;;;;28.40;23.30;;;18.30;99.90;;;;;;5068919;28;20044;-78
2023/09/17 08:29:13;;;;;;;27.80;23.33;;;18.30;99.90;;;;;;5075263;28;20083;-76
2023/09/17 08:31:39;;;;;;;26.33;23.38;;;18.20;99.90;;;;;;5079765;28;20149;-77
2023/09/17 08:34:04;;;;;;;28.73;23.25;;;18.30;99.90;;;;;;5078432;28;20102;-78
2023/09/17 08:36:31;;;;;;;29.38;24.45;;;18.30;99.90;;;;;;5084791;28;20048;-78
2023/09/17 08:38:57;;;;;;;29.00;24.58;;;18.20;99.90;;;;;;5079563;28;20099;-77
2023/09/17 08:41:22;;;;;;;30.85;25.02;;;18.40;99.90;;;;;;5073952;28;20044;-77
2023/09/17 08:43:52;;;;;;;34.17;25.50;;;18.40;99.90;;;;;;5079574;28;20036;-79
2023/09/17 08:46:22;;;;;;;30.00;24.42;;;18.40;99.90;;;;;;5078708;28;20497;-78
2023/09/17 08:48:48;;;;;;;30.30;24.55;;;18.50;99.90;;;;;;5075461;28;20033;-78
2023/09/17 08:51:18;;;;;;;32.25;24.85;;;18.60;99.90;;;;;;5094733;27;20071;-77
2023/09/17 08:54:04;;;;;;;28.48;23.70;;;18.60;99.90;;;;;;5090646;28;20041;-77
2023/09/17 08:56:32;;;;;;;32.40;24.23;;;18.50;99.90;;;;;;5065664;28;20040;-77
2023/09/17 08:59:05;;;;;;;27.73;24.63;;;18.60;99.90;;;;;;5064774;28;20080;-76
2023/09/17 09:01:37;;;;;;;30.27;25.38;;;18.60;99.90;;;;;;5075003;28;20681;-77
2023/09/17 09:04:05;;;;;;;31.98;25.33;;;18.50;99.90;;;;;;5084384;28;20032;-77
2023/09/17 09:06:32;;;;;;;33.03;25.98;;;18.50;99.90;;;;;;5082688;28;20359;-77
2023/09/17 09:08:59;;;;;;;28.58;24.52;;;18.50;99.90;;;;;;5072642;28;20040;-80
2023/09/17 09:11:25;;;;;;;29.35;24.17;;;18.50;99.90;;;;;;5076894;28;20046;-78
2023/09/17 09:13:53;;;;;;;26.40;23.00;;;18.50;99.90;;;;;;5057908;28;20119;-78
2023/09/17 09:16:19;;;;;;;26.25;22.85;;;18.50;99.90;;;;;;5059534;28;20513;-79
2023/09/17 09:18:45;;;;;;;27.52;22.15;;;18.50;99.90;;;;;;5055138;28;20076;-77
2023/09/17 09:21:13;;;;;;;24.50;21.20;;;18.50;99.90;;;;;;5053875;28;20053;-78
2023/09/17 09:23:42;;;;;;;27.05;21.52;;;18.60;99.90;;;;;;5106052;28;20108;-77
2023/09/17 09:26:07;;;;;;;24.95;21.33;;;18.60;99.90;;;;;;5068679;28;20343;-76
2023/09/17 09:28:33;;;;;;;33.47;23.75;;;18.60;99.90;;;;;;5087178;28;20040;-76
2023/09/17 09:31:03;;;;;;;33.40;24.13;;;18.50;99.90;;;;;;5076870;28;20032;-77
2023/09/17 09:33:30;;;;;;;27.92;23.10;;;18.40;99.90;;;;;;5063133;28;20041;-75
2023/09/17 09:35:56;;;;;;;28.02;22.83;;;18.40;99.90;;;;;;5063305;28;20040;-76
2023/09/17 09:38:22;;;;;;;34.25;23.92;;;18.30;99.90;;;;;;5072842;28;20087;-77
2023/09/17 09:40:48;;;;;;;28.92;24.35;;;18.10;99.90;;;;;;5065513;28;20072;-80
2023/09/17 09:43:32;;;;;;;31.52;24.25;;;18.20;99.90;;;;;;5075042;28;20080;-78
2023/09/17 09:46:02;;;;;;;31.25;26.10;;;18.20;99.90;;;;;;5060463;28;20373;-79
2023/09/17 09:48:28;;;;;;;33.22;26.00;;;18.10;99.90;;;;;;5055646;28;20084;-78
2023/09/17 09:50:55;;;;;;;33.88;25.77;;;18.10;99.90;;;;;;5055843;28;20049;-77
2023/09/17 09:53:20;;;;;;;29.80;26.10;;;18.10;99.90;;;;;;5044132;28;20087;-78
2023/09/17 09:55:46;;;;;;;32.72;26.05;;;18.10;99.90;;;;;;5066515;28;20040;-79
2023/09/17 09:58:13;;;;;;;30.30;24.67;;;18.00;99.90;;;;;;5065479;28;20045;-78
2023/09/17 10:00:44;;;;;;;29.55;24.38;;;18.00;99.90;;;;;;5074648;28;20045;-79
2023/09/17 10:03:14;;;;;;;29.58;24.40;;;18.10;99.90;;;;;;5107643;28;20044;-78
2023/09/17 10:05:40;;;;;;;34.85;26.10;;;18.00;99.90;;;;;;5072645;28;20127;-79
2023/09/17 10:08:11;;;;;;;34.65;24.67;;;18.00;99.90;;;;;;5061622;28;20045;-79
2023/09/17 10:10:37;;;;;;;26.25;22.30;;;18.10;99.90;;;;;;5063833;28;20075;-78
2023/09/17 10:13:06;;;;;;;27.70;22.42;;;18.10;99.90;;;;;;5071588;28;20048;-78
2023/09/17 10:15:36;;;;;;;27.08;21.88;;;18.10;99.90;;;;;;5071338;28;20051;-79
2023/09/17 10:18:04;;;;;;;29.13;20.73;;;18.10;99.90;;;;;;5082873;28;20072;-78
2023/09/17 10:20:30;;;;;;;27.88;22.00;;;18.20;99.90;;;;;;5063109;28;20105;-78
2023/09/17 10:23:03;;;;;;;25.42;19.60;;;18.20;99.90;;;;;;5081860;28;20049;-80
2023/09/17 10:25:30;;;;;;;22.88;19.25;;;18.20;99.90;;;;;;5098289;28;20048;-78
2023/09/17 10:27:56;;;;;;;22.48;19.13;;;18.20;99.90;;;;;;5072315;28;20147;-77
2023/09/17 10:30:22;;;;;;;26.52;20.80;;;18.20;99.90;;;;;;5071616;28;20044;-77
2023/09/17 10:32:52;;;;;;;22.08;18.42;;;18.30;99.90;;;;;;5071648;28;20076;-78
2023/09/17 10:35:17;;;;;;;23.83;17.45;;;18.20;99.90;;;;;;5072010;28;20041;-77
2023/09/17 10:37:46;;;;;;;24.05;19.33;;;18.20;99.90;;;;;;5074544;28;20044;-77
2023/09/17 10:40:13;;;;;;;23.48;17.55;;;18.30;99.90;;;;;;5069217;28;20070;-77
2023/09/17 10:42:42;;;;;;;23.95;18.40;;;18.30;99.90;;;;;;5062066;28;20458;-78
2023/09/17 10:45:10;;;;;;;26.57;17.50;;;18.30;99.90;;;;;;5053287;28;20102;-76
2023/09/17 10:47:40;;;;;;;24.08;17.95;;;18.30;99.90;;;;;;5064516;28;20055;-78
2023/09/17 10:50:07;;;;;;;22.02;17.73;;;18.30;99.90;;;;;;5063849;28;20056;-76
2023/09/17 10:52:35;;;;;;;22.95;18.77;;;18.30;99.90;;;;;;5045391;28;20063;-77
2023/09/17 10:55:02;;;;;;;25.08;18.63;;;18.40;99.90;;;;;;5101064;28;20107;-78
2023/09/17 10:57:27;;;;;;;25.52;19.52;;;18.40;99.90;;;;;;5057992;28;20144;-78
2023/09/17 10:59:56;;;;;;;23.75;19.73;;;18.40;99.90;;;;;;5071171;28;20136;-78
2023/09/17 11:02:25;;;;;;;23.27;19.65;;;18.40;99.90;;;;;;5052587;28;20055;-78
2023/09/17 11:04:51;;;;;;;24.60;19.73;;;18.50;99.90;;;;;;5097377;28;20060;-77
2023/09/17 11:07:19;;;;;;;25.52;19.00;;;18.60;99.90;;;;;;5054866;28;20041;-77
2023/09/17 11:09:45;;;;;;;23.83;18.07;;;18.60;99.90;;;;;;5055065;28;20494;-77
2023/09/17 11:12:11;;;;;;;24.38;18.77;;;18.60;99.90;;;;;;5068362;28;20638;-76
2023/09/17 11:14:37;;;;;;;23.65;19.65;;;18.60;99.90;;;;;;5059849;28;20453;-77
2023/09/17 11:17:04;;;;;;;24.02;19.35;;;18.60;99.90;;;;;;5065602;28;20048;-77
2023/09/17 11:19:30;;;;;;;24.60;20.33;;;18.60;99.90;;;;;;5070420;28;20102;-77
2023/09/17 11:22:02;;;;;;;22.27;18.48;;;18.60;99.90;;;;;;5072515;28;20457;-77
2023/09/17 11:24:30;;;;;;;22.48;18.67;;;18.70;99.90;;;;;;5066417;28;20063;-77
2023/09/17 11:26:57;;;;;;;24.58;19.80;;;18.80;99.90;;;;;;5059706;28;20097;-77
2023/09/17 11:29:39;;;;;;;24.08;20.33;;;18.90;99.90;;;;;;5072363;28;20055;-77
2023/09/17 11:32:05;;;;;;;22.70;19.83;;;19.10;99.90;;;;;;5071892;28;20057;-77
2023/09/17 11:34:34;;;;;;;24.92;19.48;;;19.10;99.90;;;;;;5058544;28;20048;-77
2023/09/17 11:37:00;;;;;;;25.50;20.88;;;19.10;99.90;;;;;;5072700;28;20079;-77
2023/09/17 11:39:26;;;;;;;23.75;19.88;;;19.10;99.90;;;;;;5062373;28;20045;-77
2023/09/17 11:42:03;;;;;;;22.95;19.38;;;19.10;99.90;;;;;;5063095;28;20138;-77
2023/09/17 11:44:30;;;;;;;25.48;18.95;;;19.10;99.90;;;;;;5077676;28;20055;-77
2023/09/17 11:46:56;;;;;;;;;;;19.10;99.90;;;;;;5063911;28;20048;-76
2023/09/17 11:49:22;;;;;;;19.80;17.40;;;19.10;99.90;;;;;;5058320;28;20282;-78
2023/09/17 11:51:49;;;;;;;20.75;17.92;;;19.10;99.90;;;;;;5070201;28;20402;-77
2023/09/17 11:54:23;;;;;;;21.23;17.02;;;19.20;99.90;;;;;;5070965;28;20051;-76
2023/09/17 11:56:55;;;;;;;24.33;18.85;;;19.10;99.90;;;;;;5074315;28;20050;-76
2023/09/17 11:59:21;;;;;;;26.67;18.90;;;19.10;99.90;;;;;;5069990;28;20064;-76
2023/09/17 12:01:59;;;;;;;21.10;18.67;;;19.00;99.90;;;;;;5078714;28;20119;-77
2023/09/17 12:04:38;;;;;;;20.95;18.02;;;19.00;99.90;;;;;;5075280;28;20047;-76
2023/09/17 12:07:14;;;;;;;23.10;19.02;;;18.90;99.90;;;;;;5083482;28;20098;-76
2023/09/17 12:10:00;;;;;;;23.92;19.40;;;19.00;99.90;;;;;;5070788;28;20051;-77
2023/09/17 12:12:27;;;;;;;21.20;18.90;;;19.00;99.90;;;;;;5061545;28;20049;-76
2023/09/17 12:14:54;;;;;;;21.43;18.77;;;19.00;99.90;;;;;;5090165;28;20064;-77
2023/09/17 12:17:20;;;;;;;25.75;19.40;;;19.10;99.90;;;;;;5069473;28;20719;-76
2023/09/17 12:19:47;;;;;;;23.95;20.48;;;19.10;99.90;;;;;;5073835;28;20135;-76
2023/09/17 12:22:13;;;;;;;24.05;20.65;;;19.10;99.90;;;;;;5072386;28;20056;-76
2023/09/17 12:24:44;;;;;;;25.02;21.25;;;19.30;99.90;;;;;;5066346;28;20048;-75
2023/09/17 12:27:29;;;;;;;21.38;18.65;;;19.50;99.90;;;;;;5071592;28;20048;-75
2023/09/17 12:29:55;;;;;;;21.40;18.15;;;19.80;99.90;;;;;;5065145;28;20059;-74